Time;durP1;ratioP1;P1;durP2;ratioP2;P2;SDS_P1;SDS_P2;PMS_P1;PMS_P2;Temp;Humidity;BMP_temperature;BMP_pressure;BME280_temperature;BME280_humidity;BME280_pressure;Samples;Min_cycle;Max_cycle;Signal;HPM_P1;HPM_P2
2022/03/23 00:00:27;;;;;;;29.00;21.65;;;6.30;97.40;;;;;;4979061;28;20229;-85
2022/03/23 00:02:55;;;;;;;36.05;23.30;;;6.30;97.70;;;;;;4979105;28;20204;-83
2022/03/23 00:05:25;;;;;;;27.23;20.40;;;6.30;97.80;;;;;;4980260;28;20281;-85
2022/03/23 00:07:53;;;;;;;34.72;24.17;;;6.30;97.90;;;;;;4982916;28;20258;-84
2022/03/23 00:10:21;;;;;;;27.75;20.65;;;6.30;98.00;;;;;;4981993;28;20307;-85
2022/03/23 00:12:49;;;;;;;34.75;21.75;;;6.20;98.20;;;;;;4978565;28;20232;-84
2022/03/23 00:15:18;;;;;;;32.05;22.63;;;6.20;98.30;;;;;;4985629;28;20248;-86
2022/03/23 00:17:47;;;;;;;34.50;24.70;;;6.20;98.30;;;;;;4973254;28;20291;-85
2022/03/23 00:20:14;;;;;;;34.63;23.90;;;6.20;98.50;;;;;;4975844;28;20220;-85
2022/03/23 00:22:42;;;;;;;27.88;20.88;;;6.20;98.80;;;;;;4976672;28;20208;-85
2022/03/23 00:25:10;;;;;;;31.60;22.33;;;6.20;98.80;;;;;;4974078;28;20192;-84
2022/03/23 00:27:39;;;;;;;30.90;21.42;;;6.10;98.80;;;;;;4974248;28;20196;-84
2022/03/23 00:30:08;;;;;;;32.20;22.63;;;6.10;99.00;;;;;;4975721;28;20236;-84
2022/03/23 00:32:38;;;;;;;28.77;22.58;;;6.10;99.10;;;;;;4972326;28;20296;-83
2022/03/23 00:35:06;;;;;;;31.27;22.77;;;6.00;99.10;;;;;;4971863;28;20881;-85
2022/03/23 00:37:35;;;;;;;30.17;22.30;;;6.00;99.20;;;;;;4972000;28;20403;-85
2022/03/23 00:40:03;;;;;;;38.17;24.35;;;6.00;99.40;;;;;;4973069;28;20224;-85
2022/03/23 00:42:31;;;;;;;34.15;23.55;;;5.90;99.50;;;;;;4972534;28;20220;-85
2022/03/23 00:44:59;;;;;;;31.70;24.65;;;5.90;99.60;;;;;;4972334;28;20406;-84
2022/03/23 00:47:27;;;;;;;36.50;25.48;;;5.90;99.80;;;;;;4972990;28;20291;-86
2022/03/23 00:49:57;;;;;;;33.33;23.17;;;5.90;99.90;;;;;;4973490;28;20224;-84
2022/03/23 00:52:25;;;;;;;36.40;24.35;;;5.80;99.90;;;;;;4978429;28;20523;-85
2022/03/23 00:54:53;;;;;;;35.42;23.67;;;5.70;99.90;;;;;;4974307;28;20203;-85
2022/03/23 00:57:20;;;;;;;32.67;23.58;;;5.80;99.90;;;;;;4970815;28;20247;-84
2022/03/23 00:59:48;;;;;;;34.08;24.70;;;5.80;99.90;;;;;;4977343;28;20232;-84
2022/03/23 01:02:16;;;;;;;34.42;24.40;;;5.80;99.90;;;;;;4966977;28;20240;-84
2022/03/23 01:04:44;;;;;;;33.00;24.02;;;5.80;99.90;;;;;;4967401;28;20216;-84
2022/03/23 01:07:14;;;;;;;33.92;25.58;;;5.80;99.90;;;;;;4970860;28;20200;-84
2022/03/23 01:09:41;;;;;;;36.47;25.00;;;5.70;99.90;;;;;;4971216;28;20246;-84
2022/03/23 01:12:10;;;;;;;37.08;25.92;;;5.70;99.90;;;;;;4971522;28;20279;-83
2022/03/23 01:14:39;;;;;;;32.25;24.15;;;5.70;99.90;;;;;;4972379;28;20236;-86
2022/03/23 01:17:08;;;;;;;37.90;24.88;;;5.60;99.90;;;;;;4981683;28;20299;-83
2022/03/23 01:19:36;;;;;;;34.75;25.23;;;5.60;99.90;;;;;;4981189;28;20216;-84
2022/03/23 01:22:06;;;;;;;33.78;24.70;;;5.60;99.90;;;;;;4972891;28;20311;-83
2022/03/23 01:24:35;;;;;;;35.90;24.40;;;5.60;99.90;;;;;;4973508;28;20282;-84
2022/03/23 01:27:04;;;;;;;37.33;26.10;;;5.60;99.90;;;;;;4975001;28;20231;-85
2022/03/23 01:29:32;;;;;;;34.70;25.33;;;5.50;99.90;;;;;;4971246;28;20227;-84
2022/03/23 01:31:59;;;;;;;40.28;26.92;;;5.50;99.90;;;;;;4971454;28;20231;-83
2022/03/23 01:34:27;;;;;;;37.45;25.38;;;5.50;99.90;;;;;;4970616;28;20815;-84
2022/03/23 01:36:55;;;;;;;35.00;25.52;;;5.40;99.90;;;;;;4969552;28;20894;-83
2022/03/23 01:39:23;;;;;;;36.83;26.25;;;5.40;99.90;;;;;;4969698;28;20219;-84
2022/03/23 01:41:52;;;;;;;38.00;24.63;;;5.40;99.90;;;;;;4969268;28;20279;-83
2022/03/23 01:44:24;;;;;;;36.05;26.35;;;5.30;99.90;;;;;;4970247;28;20425;-83
2022/03/23 01:46:59;;;;;;;36.08;25.73;;;5.30;99.90;;;;;;4970229;28;20303;-83
2022/03/23 01:49:28;;;;;;;40.88;27.15;;;5.20;99.90;;;;;;4969712;28;20280;-84
2022/03/23 01:51:56;;;;;;;35.25;25.48;;;5.20;99.90;;;;;;4970217;28;20833;-85
2022/03/23 01:54:24;;;;;;;40.53;26.60;;;5.10;99.90;;;;;;4970785;28;20267;-83
2022/03/23 01:56:55;;;;;;;37.95;26.85;;;5.10;99.90;;;;;;4970316;28;20220;-84
2022/03/23 01:59:22;;;;;;;34.88;25.92;;;5.10;99.90;;;;;;4969778;28;20224;-84
2022/03/23 02:01:52;;;;;;;39.55;26.48;;;5.10;99.90;;;;;;4970354;28;20881;-83
2022/03/23 02:04:20;;;;;;;36.67;25.40;;;5.00;99.90;;;;;;4989153;28;20216;-84
2022/03/23 02:06:48;;;;;;;39.85;26.20;;;5.00;99.90;;;;;;4989559;28;20310;-84
2022/03/23 02:09:16;;;;;;;39.95;27.17;;;4.90;99.90;;;;;;4990254;28;20589;-83
2022/03/23 02:11:45;;;;;;;41.50;27.00;;;4.90;99.90;;;;;;4990743;28;20207;-83
2022/03/23 02:14:15;;;;;;;37.28;26.00;;;4.90;99.90;;;;;;4991349;28;20270;-86
2022/03/23 02:16:43;;;;;;;36.35;26.38;;;4.80;99.90;;;;;;4991770;28;20274;-83
2022/03/23 02:19:11;;;;;;;35.28;25.20;;;4.80;99.90;;;;;;4991314;28;20219;-85
2022/03/23 02:21:43;;;;;;;37.13;26.17;;;4.80;99.90;;;;;;5003163;28;20387;-84
2022/03/23 02:24:11;;;;;;;39.95;25.95;;;4.70;99.90;;;;;;5000984;28;20834;-83
2022/03/23 02:26:39;;;;;;;42.75;28.05;;;4.70;99.90;;;;;;4991635;28;20271;-83
2022/03/23 02:29:08;;;;;;;35.30;25.55;;;4.70;99.90;;;;;;4987711;28;20306;-84
2022/03/23 02:31:38;;;;;;;36.20;24.95;;;4.60;99.90;;;;;;4988109;28;20703;-84
2022/03/23 02:34:06;;;;;;;36.45;27.10;;;4.60;99.90;;;;;;4986617;28;20207;-83
2022/03/23 02:36:35;;;;;;;35.33;24.67;;;4.60;99.90;;;;;;4987491;28;20229;-84
2022/03/23 02:39:04;;;;;;;37.55;27.42;;;4.50;99.90;;;;;;4986857;28;20419;-84
2022/03/23 02:41:32;;;;;;;40.58;27.13;;;4.50;99.90;;;;;;4987297;28;20203;-84
2022/03/23 02:44:01;;;;;;;39.80;28.00;;;4.50;99.90;;;;;;4987993;28;20203;-86
2022/03/23 02:46:35;;;;;;;40.63;27.02;;;4.40;99.90;;;;;;4987680;28;20191;-83
2022/03/23 02:49:03;;;;;;;38.60;28.13;;;4.40;99.90;;;;;;4986577;28;20227;-84
2022/03/23 02:51:31;;;;;;;43.83;27.23;;;4.30;99.90;;;;;;4988041;28;20358;-84
2022/03/23 03:02:33;;;;;;;37.75;26.23;;;4.10;99.90;;;;;;4986827;28;20209;-84
2022/03/23 03:05:01;;;;;;;38.40;26.70;;;4.10;99.90;;;;;;4987278;28;20786;-83
2022/03/23 03:08:44;;;;;;;36.38;26.65;;;4.10;99.90;;;;;;4985911;28;20212;-84
2022/03/23 03:10:17;;;;;;;39.70;27.27;;;4.00;99.90;;;;;;4988667;28;20797;-84
2022/03/23 03:12:46;;;;;;;39.47;26.15;;;4.00;99.90;;;;;;4988111;28;20214;-84
2022/03/23 03:15:15;;;;;;;36.05;26.67;;;4.00;99.90;;;;;;4987538;28;20206;-84
2022/03/23 03:17:47;;;;;;;38.90;26.90;;;3.90;99.90;;;;;;4988536;28;20269;-84
2022/03/23 03:20:16;;;;;;;38.45;26.88;;;3.90;99.90;;;;;;4989209;28;20251;-84
2022/03/23 03:22:46;;;;;;;38.05;28.23;;;3.90;99.90;;;;;;4989840;28;20207;-85
2022/03/23 03:25:15;;;;;;;39.92;26.80;;;3.90;99.90;;;;;;5006303;28;20195;-84
2022/03/23 03:27:44;;;;;;;44.45;29.67;;;3.90;99.90;;;;;;4989023;28;20180;-84
2022/03/23 03:30:16;;;;;;;36.50;25.92;;;3.80;99.90;;;;;;4988285;28;20368;-84
2022/03/23 03:32:45;;;;;;;35.75;24.98;;;3.80;99.90;;;;;;4988502;28;20285;-83
2022/03/23 03:35:14;;;;;;;40.95;26.08;;;3.80;99.90;;;;;;4987344;28;20969;-84
2022/03/23 03:37:43;;;;;;;43.13;28.42;;;3.80;99.90;;;;;;4984996;28;20335;-85
2022/03/23 03:40:12;;;;;;;41.10;27.52;;;3.70;99.90;;;;;;4984674;28;20736;-85
2022/03/23 03:42:40;;;;;;;43.50;29.13;;;3.70;99.90;;;;;;4988389;28;20203;-85
2022/03/23 03:45:09;;;;;;;37.95;28.25;;;3.70;99.90;;;;;;4989807;28;20671;-84
2022/03/23 03:47:38;;;;;;;43.35;29.48;;;3.60;99.90;;;;;;4989687;28;20564;-85
2022/03/23 03:50:06;;;;;;;42.28;28.10;;;3.60;99.90;;;;;;4989586;28;20243;-83
2022/03/23 03:52:34;;;;;;;37.45;25.98;;;3.60;99.90;;;;;;4988268;28;20208;-84
2022/03/23 03:55:02;;;;;;;42.65;28.20;;;3.60;99.90;;;;;;4988597;28;20204;-83
2022/03/23 03:57:30;;;;;;;41.83;28.60;;;3.60;99.90;;;;;;4988683;28;20243;-85
2022/03/23 03:59:58;;;;;;;45.65;29.20;;;3.60;99.90;;;;;;4988990;28;20314;-85
2022/03/23 04:02:26;;;;;;;38.40;27.80;;;3.60;99.90;;;;;;4991319;28;20819;-84
2022/03/23 04:04:56;;;;;;;46.75;29.98;;;3.70;99.90;;;;;;4993095;28;20207;-85
2022/03/23 04:07:24;;;;;;;40.63;28.17;;;3.70;99.90;;;;;;4993736;28;20287;-85
2022/03/23 04:09:51;;;;;;;38.33;27.65;;;3.70;99.90;;;;;;4992371;28;20223;-83
2022/03/23 04:12:19;;;;;;;41.67;27.75;;;3.70;99.90;;;;;;4992253;28;20227;-84
2022/03/23 04:14:47;;;;;;;40.75;26.70;;;3.70;99.90;;;;;;4992630;28;20188;-84
2022/03/23 04:17:16;;;;;;;41.10;28.45;;;3.70;99.90;;;;;;4993069;28;20755;-84
2022/03/23 04:19:43;;;;;;;37.90;27.50;;;3.70;99.90;;;;;;4993654;28;20695;-84
2022/03/23 04:22:13;;;;;;;44.42;28.33;;;3.70;99.90;;;;;;4995160;28;20204;-84
2022/03/23 04:24:41;;;;;;;41.65;27.52;;;3.70;99.90;;;;;;4993866;28;20208;-84
2022/03/23 04:27:09;;;;;;;50.78;29.02;;;3.60;99.90;;;;;;5001547;28;20198;-84
2022/03/23 04:29:36;;;;;;;42.90;29.55;;;3.60;99.90;;;;;;5003114;28;20251;-84
2022/03/23 04:32:05;;;;;;;39.33;28.23;;;3.60;99.90;;;;;;4993490;28;20809;-85
2022/03/23 04:34:33;;;;;;;41.47;27.90;;;3.50;99.90;;;;;;4992414;28;20258;-85
2022/03/23 04:37:01;;;;;;;40.60;29.10;;;3.50;99.90;;;;;;4992715;28;20199;-86
2022/03/23 04:39:31;;;;;;;44.63;28.88;;;3.50;99.90;;;;;;4992498;28;20259;-86
2022/03/23 04:41:59;;;;;;;45.17;30.27;;;3.50;99.90;;;;;;4993210;28;20199;-86
2022/03/23 04:44:27;;;;;;;48.05;30.50;;;3.50;99.90;;;;;;4992878;28;20314;-86
2022/03/23 04:46:55;;;;;;;45.70;29.70;;;3.50;99.90;;;;;;4996441;28;20253;-85
2022/03/23 04:49:23;;;;;;;43.90;29.10;;;3.40;99.90;;;;;;4996681;28;20430;-86
2022/03/23 04:51:51;;;;;;;40.40;26.45;;;3.40;99.90;;;;;;4993919;28;20211;-86
2022/03/23 04:54:19;;;;;;;46.78;29.30;;;3.40;99.90;;;;;;4989818;28;20307;-86
2022/03/23 04:56:48;;;;;;;47.13;29.42;;;3.40;99.90;;;;;;4992022;28;20238;-85
2022/03/23 04:59:16;;;;;;;40.90;28.42;;;3.40;99.90;;;;;;4989204;28;20238;-85
2022/03/23 05:01:48;;;;;;;46.70;29.45;;;3.40;99.90;;;;;;4989516;28;20746;-85
2022/03/23 05:04:16;;;;;;;46.45;30.55;;;3.40;99.90;;;;;;4991484;28;20773;-85
2022/03/23 05:06:44;;;;;;;41.45;27.38;;;3.40;99.90;;;;;;4989097;28;20258;-85
2022/03/23 05:09:12;;;;;;;47.30;30.95;;;3.40;99.90;;;;;;4989093;28;20255;-84
2022/03/23 05:11:40;;;;;;;45.05;30.45;;;3.40;99.90;;;;;;4988387;28;20295;-83
2022/03/23 05:14:09;;;;;;;49.17;31.25;;;3.40;99.90;;;;;;4988697;28;20231;-84
2022/03/23 05:16:37;;;;;;;44.92;30.15;;;3.40;99.90;;;;;;4990027;28;20204;-83
2022/03/23 05:19:05;;;;;;;42.67;29.65;;;3.40;99.90;;;;;;4988508;28;20262;-84
2022/03/23 05:21:33;;;;;;;43.95;28.45;;;3.40;99.90;;;;;;4994515;28;20192;-83
2022/03/23 05:24:01;;;;;;;48.22;31.30;;;3.40;99.90;;;;;;4986480;28;20211;-83
2022/03/23 05:26:29;;;;;;;44.30;29.30;;;3.40;99.90;;;;;;4987431;28;20211;-83
2022/03/23 05:28:57;;;;;;;49.42;30.67;;;3.40;99.90;;;;;;4990528;28;20203;-84
2022/03/23 05:31:26;;;;;;;46.85;28.90;;;3.40;99.90;;;;;;5005602;28;20235;-85
2022/03/23 05:33:54;;;;;;;44.30;30.55;;;3.40;99.90;;;;;;4995792;28;20258;-86
2022/03/23 05:36:22;;;;;;;46.10;30.33;;;3.40;99.90;;;;;;4990622;28;20223;-83
2022/03/23 05:38:52;;;;;;;47.40;30.17;;;3.40;99.90;;;;;;4989562;28;20853;-86
2022/03/23 05:41:22;;;;;;;46.47;31.73;;;3.40;99.90;;;;;;4989911;28;20238;-85
2022/03/23 05:43:50;;;;;;;39.22;28.10;;;3.40;99.90;;;;;;4990731;28;20212;-86
2022/03/23 05:46:18;;;;;;;43.65;29.05;;;3.40;99.90;;;;;;4992080;28;20223;-90
2022/03/23 05:48:47;;;;;;;47.80;29.80;;;3.50;99.90;;;;;;4992560;28;20196;-89
2022/03/23 05:51:16;;;;;;;49.38;32.80;;;3.60;99.90;;;;;;4992002;28;20196;-87
2022/03/23 05:53:43;;;;;;;46.35;31.30;;;3.70;99.90;;;;;;4991921;28;20203;-87
2022/03/23 05:56:11;;;;;;;43.40;29.77;;;3.80;99.90;;;;;;4992426;28;20583;-88
2022/03/23 05:58:39;;;;;;;48.60;32.33;;;3.80;99.90;;;;;;4992306;28;20239;-89
2022/03/23 06:01:07;;;;;;;57.40;32.83;;;3.80;99.90;;;;;;4992408;28;20192;-86
2022/03/23 06:03:35;;;;;;;55.75;34.88;;;3.90;99.90;;;;;;4993332;28;20375;-86
2022/03/23 06:06:06;;;;;;;57.05;33.67;;;4.00;99.90;;;;;;4992008;28;20206;-85
2022/03/23 06:08:34;;;;;;;45.80;31.55;;;4.10;99.90;;;;;;4991164;28;20580;-83
2022/03/23 06:11:03;;;;;;;53.55;33.28;;;4.20;99.90;;;;;;4992270;28;20215;-88
2022/03/23 06:13:31;;;;;;;51.20;32.25;;;4.20;99.90;;;;;;4993174;28;20291;-90
2022/03/23 06:15:59;;;;;;;54.97;31.80;;;4.30;99.90;;;;;;4991252;28;20195;-88
2022/03/23 06:18:31;;;;;;;53.25;33.47;;;4.40;99.90;;;;;;4989019;28;20289;-91
2022/03/23 06:21:04;;;;;;;48.45;32.25;;;4.50;99.90;;;;;;4990762;28;20227;-94
2022/03/23 06:23:41;;;;;;;45.42;30.90;;;4.60;99.90;;;;;;4993433;28;20278;-91
2022/03/23 06:26:11;;;;;;;53.55;31.60;;;4.70;99.90;;;;;;4994030;28;20214;-88
2022/03/23 06:28:41;;;;;;;48.97;33.13;;;4.70;99.90;;;;;;4979698;28;20188;-89
2022/03/23 06:31:09;;;;;;;43.10;30.23;;;4.80;99.90;;;;;;4998328;28;20238;-88
2022/03/23 06:33:40;;;;;;;47.13;32.75;;;4.90;99.90;;;;;;4990834;28;20199;-92
2022/03/23 06:36:12;;;;;;;50.63;33.33;;;5.00;99.90;;;;;;5009710;28;20195;-93
2022/03/23 06:38:46;;;;;;;51.10;30.98;;;5.10;99.90;;;;;;4997869;28;20220;-89
2022/03/23 06:41:16;;;;;;;44.78;29.00;;;5.30;99.90;;;;;;4985939;28;20204;-88
2022/03/23 06:43:44;;;;;;;45.47;31.60;;;5.30;99.90;;;;;;4994682;28;20295;-90
2022/03/23 06:46:16;;;;;;;42.97;28.88;;;5.40;99.90;;;;;;4994270;28;20242;-89
2022/03/23 06:48:53;;;;;;;48.72;33.38;;;5.50;99.90;;;;;;4994911;28;20242;-90
2022/03/23 06:51:23;;;;;;;47.80;30.85;;;5.60;99.90;;;;;;4996197;28;20292;-89
2022/03/23 06:54:01;;;;;;;46.83;32.17;;;5.80;99.90;;;;;;4996399;28;20211;-90
2022/03/23 07:00:14;;;;;;;49.03;31.17;;;6.00;99.90;;;;;;4989173;28;20287;-87
2022/03/23 07:07:04;;;;;;;43.42;29.02;;;6.20;99.90;;;;;;4977303;28;20753;-88
2022/03/23 07:10:23;;;;;;;37.92;28.08;;;6.30;99.90;;;;;;4980729;28;20232;-90
2022/03/23 07:19:22;;;;;;;39.25;28.67;;;6.80;99.90;;;;;;4912216;29;20329;-89
2022/03/23 07:25:49;;;;;;;36.83;26.38;;;7.00;99.90;;;;;;4883850;29;20260;-90
2022/03/23 07:28:24;;;;;;;44.30;29.35;;;7.20;99.90;;;;;;4955149;28;20288;-90
2022/03/23 07:30:53;;;;;;;42.10;27.25;;;7.40;99.90;;;;;;4966039;28;20290;-88
2022/03/23 07:33:22;;;;;;;39.28;26.50;;;7.50;99.90;;;;;;4993524;28;20210;-87
2022/03/23 07:35:50;;;;;;;34.85;23.65;;;7.60;99.90;;;;;;5002439;28;20215;-88
2022/03/23 07:38:18;;;;;;;34.60;24.15;;;7.70;99.90;;;;;;5005900;28;20456;-85
2022/03/23 07:40:47;;;;;;;34.33;22.77;;;7.90;99.90;;;;;;4999695;28;20287;-86
2022/03/23 07:43:15;;;;;;;32.25;22.85;;;8.00;99.90;;;;;;4997431;28;20256;-86
2022/03/23 07:45:44;;;;;;;38.85;24.40;;;8.10;99.90;;;;;;4995695;28;20254;-86
2022/03/23 07:48:12;;;;;;;28.48;22.10;;;8.20;99.90;;;;;;4994100;28;20281;-85
2022/03/23 07:50:40;;;;;;;30.23;23.15;;;8.30;99.90;;;;;;4994261;28;20232;-86
2022/03/23 07:53:08;;;;;;;33.13;21.58;;;8.40;99.90;;;;;;4994347;28;20204;-86
2022/03/23 07:55:36;;;;;;;33.38;20.10;;;8.60;99.90;;;;;;4991485;28;20220;-87
2022/03/23 07:58:05;;;;;;;25.38;20.33;;;8.70;99.90;;;;;;4992536;28;20628;-87
2022/03/23 08:00:33;;;;;;;29.85;21.90;;;8.80;99.90;;;;;;4977436;28;20787;-87
2022/03/23 08:03:02;;;;;;;25.13;20.65;;;8.90;99.90;;;;;;4986600;28;20227;-86
2022/03/23 08:05:31;;;;;;;29.20;21.33;;;9.10;99.90;;;;;;4981064;28;20310;-88
2022/03/23 08:07:59;;;;;;;29.65;21.25;;;9.30;99.90;;;;;;4989140;28;20786;-89
2022/03/23 08:10:27;;;;;;;26.13;19.75;;;9.40;99.90;;;;;;4986081;28;20226;-88
2022/03/23 08:12:55;;;;;;;22.52;19.42;;;9.60;99.90;;;;;;4993745;28;20234;-89
2022/03/23 08:15:25;;;;;;;28.33;23.02;;;9.70;99.90;;;;;;4988381;28;20201;-85
2022/03/23 08:17:53;;;;;;;27.90;20.38;;;9.80;98.70;;;;;;4990645;28;20212;-87
2022/03/23 08:20:36;;;;;;;26.65;20.77;;;10.00;98.00;;;;;;4980711;28;20634;-86
2022/03/23 08:23:07;;;;;;;26.30;20.60;;;10.10;97.70;;;;;;4994806;28;20623;-87
2022/03/23 08:25:38;;;;;;;22.30;17.80;;;10.20;97.60;;;;;;4993169;28;20281;-85
2022/03/23 08:28:07;;;;;;;21.95;17.80;;;10.40;97.40;;;;;;4996352;28;20203;-87
2022/03/23 08:34:25;;;;;;;22.15;18.35;;;10.70;95.50;;;;;;4999278;28;20481;-86
2022/03/23 08:36:54;;;;;;;23.25;18.50;;;10.80;95.10;;;;;;4992472;28;20291;-91
2022/03/23 08:39:22;;;;;;;19.85;17.15;;;10.90;94.50;;;;;;4993163;28;20278;-86
2022/03/23 08:41:50;;;;;;;24.03;18.90;;;11.00;94.50;;;;;;4988637;28;20322;-85
2022/03/23 08:44:18;;;;;;;20.83;17.83;;;11.10;94.10;;;;;;4983287;28;21032;-84
2022/03/23 08:46:48;;;;;;;21.90;18.60;;;11.30;93.80;;;;;;4989292;28;20481;-84
2022/03/23 08:49:16;;;;;;;21.90;17.77;;;11.40;94.00;;;;;;4989188;28;20436;-88
2022/03/23 08:51:45;;;;;;;19.80;17.70;;;11.50;93.80;;;;;;4990596;28;20543;-86
2022/03/23 08:54:16;;;;;;;20.30;18.20;;;11.60;93.10;;;;;;4992280;28;20215;-84
2022/03/23 08:56:44;;;;;;;19.13;16.70;;;11.70;92.60;;;;;;4992522;28;20504;-87
2022/03/23 08:59:14;;;;;;;19.47;17.37;;;11.80;92.60;;;;;;4991490;28;20616;-87
2022/03/23 09:01:42;;;;;;;27.53;18.83;;;11.90;92.20;;;;;;4990511;28;20455;-86
2022/03/23 09:04:10;;;;;;;20.73;17.27;;;12.00;92.50;;;;;;4989507;28;20446;-86
2022/03/23 09:06:38;;;;;;;21.07;17.20;;;12.10;92.00;;;;;;4990963;28;20447;-86
2022/03/23 09:09:08;;;;;;;19.63;17.53;;;12.30;91.80;;;;;;4990376;28;20479;-87
2022/03/23 09:11:36;;;;;;;19.90;17.53;;;12.40;91.20;;;;;;4990976;28;20428;-87
2022/03/23 09:14:04;;;;;;;19.43;16.87;;;12.60;90.70;;;;;;4992190;28;20486;-83
2022/03/23 09:16:32;;;;;;;16.30;14.70;;;12.70;90.90;;;;;;4992472;28;20443;-86
2022/03/23 09:19:02;;;;;;;17.30;15.03;;;12.80;90.40;;;;;;4993045;28;20561;-84
2022/03/23 09:21:32;;;;;;;18.10;16.30;;;12.80;90.30;;;;;;4993699;28;20518;-86
2022/03/23 09:24:00;;;;;;;15.23;13.63;;;12.90;90.00;;;;;;5001116;28;20451;-87
2022/03/23 09:26:30;;;;;;;17.37;15.77;;;13.00;90.10;;;;;;4995133;28;20910;-84
2022/03/23 09:29:00;;;;;;;16.60;14.70;;;13.10;89.10;;;;;;4994503;28;20458;-84
2022/03/23 09:31:29;;;;;;;18.47;16.47;;;13.10;89.00;;;;;;4981040;28;20472;-86
2022/03/23 09:34:02;;;;;;;19.40;16.80;;;13.30;88.60;;;;;;4986374;28;20459;-85
2022/03/23 09:39:15;;;;;;;18.73;16.80;;;13.40;87.50;;;;;;4991125;28;20506;-85
2022/03/23 09:41:46;;;;;;;18.33;16.37;;;13.40;87.30;;;;;;4992653;28;20589;-83
2022/03/23 09:44:14;;;;;;;21.53;16.73;;;13.50;87.00;;;;;;4991417;28;20443;-85
2022/03/23 09:46:43;;;;;;;19.07;16.57;;;13.60;86.10;;;;;;4979819;28;20447;-84
2022/03/23 09:49:11;;;;;;;16.90;15.20;;;13.70;85.60;;;;;;4993468;28;20525;-86
2022/03/23 09:51:42;;;;;;;19.07;16.97;;;13.80;85.40;;;;;;4994796;28;20427;-85
2022/03/23 09:54:11;;;;;;;16.40;13.90;;;13.70;85.50;;;;;;4992158;28;20465;-85
2022/03/23 09:56:39;;;;;;;18.27;16.37;;;13.80;87.10;;;;;;4991718;28;20439;-86
2022/03/23 09:59:09;;;;;;;17.47;15.67;;;13.90;85.60;;;;;;4989800;28;20459;-84
2022/03/23 10:02:32;;;;;;;18.30;16.50;;;14.10;87.10;;;;;;4990488;28;20524;-83
2022/03/23 10:05:49;;;;;;;19.27;15.63;;;14.20;87.10;;;;;;4987255;28;20439;-86
2022/03/23 10:08:56;;;;;;;17.33;15.73;;;14.20;84.10;;;;;;4988997;28;20534;-85
2022/03/23 10:12:10;;;;;;;18.17;16.20;;;14.20;84.60;;;;;;4991169;28;20443;-86
2022/03/23 10:15:29;;;;;;;18.90;16.17;;;14.30;84.20;;;;;;4957192;28;20553;-85
2022/03/23 10:18:44;;;;;;;18.50;16.50;;;14.50;83.80;;;;;;4991004;28;20466;-85
2022/03/23 10:21:12;;;;;;;19.40;16.50;;;14.60;85.40;;;;;;4970407;28;20486;-84
2022/03/23 10:23:40;;;;;;;18.43;15.77;;;14.60;84.70;;;;;;4970613;28;20439;-84
2022/03/23 10:26:13;;;;;;;17.47;15.23;;;14.60;84.50;;;;;;4978942;28;20567;-85
2022/03/23 10:28:43;;;;;;;18.60;15.63;;;14.70;83.90;;;;;;4988928;28;20451;-86
2022/03/23 10:31:20;;;;;;;20.40;17.57;;;14.80;83.60;;;;;;4989741;28;20443;-87
2022/03/23 10:33:57;;;;;;;20.43;16.93;;;14.90;82.60;;;;;;4990517;28;20446;-86
2022/03/23 10:36:30;;;;;;;20.47;16.77;;;14.90;83.10;;;;;;4990999;28;20489;-89
2022/03/23 10:39:00;;;;;;;18.70;16.37;;;14.90;83.40;;;;;;4990965;28;21142;-85
2022/03/23 10:41:30;;;;;;;21.47;17.40;;;14.90;83.30;;;;;;4989274;28;20471;-84
2022/03/23 10:43:59;;;;;;;22.60;17.20;;;15.00;83.10;;;;;;4989347;28;20446;-86
2022/03/23 10:46:28;;;;;;;17.17;15.40;;;15.00;83.10;;;;;;4996786;28;20478;-87
2022/03/23 10:49:02;;;;;;;19.13;15.67;;;15.10;82.10;;;;;;5002637;28;20463;-85
2022/03/23 10:51:32;;;;;;;17.47;15.53;;;15.10;81.50;;;;;;4991689;28;20877;-85
2022/03/23 10:54:14;;;;;;;19.07;15.80;;;15.10;82.10;;;;;;4992716;28;20432;-85
2022/03/23 10:56:43;;;;;;;18.87;16.20;;;15.10;82.10;;;;;;4992402;28;20938;-85
2022/03/23 10:59:25;;;;;;;19.53;16.70;;;15.10;82.50;;;;;;4991183;28;20466;-83
2022/03/23 11:02:03;;;;;;;22.20;15.70;;;15.10;83.10;;;;;;4991221;28;20503;-85
2022/03/23 11:04:45;;;;;;;19.60;17.33;;;15.20;83.80;;;;;;4990296;28;20691;-86
2022/03/23 11:07:24;;;;;;;18.50;15.40;;;15.30;83.80;;;;;;4991675;28;20439;-88
2022/03/23 11:15:49;;;;;;;22.60;18.70;;;15.50;85.30;;;;;;4997302;28;20517;-85
2022/03/23 11:18:24;;;;;;;25.00;16.30;;;15.40;86.10;;;;;;4996083;28;20458;-85
2022/03/23 11:20:54;;;;;;;23.47;17.90;;;15.50;87.20;;;;;;4997608;28;20486;-87
2022/03/23 11:23:24;;;;;;;20.17;16.23;;;15.40;87.70;;;;;;4994512;28;20744;-83
2022/03/23 11:25:54;;;;;;;24.73;19.00;;;15.40;88.00;;;;;;4993380;28;20462;-85
2022/03/23 11:28:28;;;;;;;26.10;17.20;;;15.50;89.70;;;;;;4992937;28;20445;-84
2022/03/23 11:30:58;;;;;;;25.20;17.63;;;15.50;89.30;;;;;;4995133;28;21146;-88
2022/03/23 11:33:32;;;;;;;26.73;17.87;;;15.60;90.70;;;;;;4996012;28;20469;-85
2022/03/23 11:36:02;;;;;;;21.03;17.57;;;15.60;91.50;;;;;;4995305;28;20849;-85
2022/03/23 11:38:30;;;;;;;28.77;18.10;;;15.70;91.50;;;;;;4996059;28;20557;-84
2022/03/23 11:40:59;;;;;;;21.37;17.80;;;15.80;90.60;;;;;;4994528;28;20525;-85
2022/03/23 11:43:30;;;;;;;28.90;18.50;;;15.90;91.00;;;;;;4993088;28;20438;-85
2022/03/23 11:46:22;;;;;;;23.43;18.40;;;15.90;90.80;;;;;;4995585;28;20482;-86
2022/03/23 11:49:01;;;;;;;27.33;20.43;;;16.00;90.80;;;;;;4997428;28;20474;-85
2022/03/23 11:51:59;;;;;;;23.73;19.00;;;16.00;90.30;;;;;;5015864;28;20438;-85
2022/03/23 11:55:37;;;;;;;25.23;19.27;;;15.90;90.10;;;;;;4988436;28;20974;-85
2022/03/23 11:57:22;;;;;;;27.80;19.97;;;16.00;90.50;;;;;;4996222;28;21036;-84
2022/03/23 11:59:50;;;;;;;28.87;20.07;;;16.00;91.70;;;;;;4994085;28;20481;-85
2022/03/23 12:02:40;;;;;;;27.60;20.00;;;16.00;90.90;;;;;;4995257;28;21228;-88
2022/03/23 12:05:30;;;;;;;21.97;18.90;;;16.00;90.30;;;;;;4990314;28;20518;-86
2022/03/23 12:08:08;;;;;;;26.37;20.27;;;16.10;90.70;;;;;;4988010;28;20566;-87
2022/03/23 12:10:44;;;;;;;27.07;20.60;;;16.10;90.50;;;;;;4980845;28;20463;-84
2022/03/23 12:13:17;;;;;;;25.77;20.40;;;16.10;89.80;;;;;;4989307;28;20460;-86
2022/03/23 12:16:01;;;;;;;23.23;18.60;;;16.20;89.50;;;;;;4984133;28;20455;-86
2022/03/23 12:18:44;;;;;;;28.53;20.23;;;16.30;89.90;;;;;;4983396;28;20443;-85
2022/03/23 12:21:21;;;;;;;25.80;19.70;;;16.30;90.10;;;;;;4979473;28;20558;-85
2022/03/23 12:23:55;;;;;;;26.50;18.50;;;16.30;88.90;;;;;;4990738;28;20490;-84
2022/03/23 12:26:30;;;;;;;27.60;22.20;;;16.40;90.00;;;;;;4981804;28;20452;-85
2022/03/23 12:29:05;;;;;;;23.53;19.73;;;16.40;89.40;;;;;;4986657;28;20550;-85
2022/03/23 12:31:38;;;;;;;25.53;19.60;;;16.30;89.20;;;;;;4993866;28;20985;-84
2022/03/23 12:34:16;;;;;;;27.17;21.17;;;16.40;89.40;;;;;;4995325;28;20454;-87
2022/03/23 12:37:04;;;;;;;28.43;20.23;;;16.50;90.40;;;;;;4986862;28;20470;-85
2022/03/23 12:39:40;;;;;;;28.20;20.97;;;16.50;90.30;;;;;;4991908;28;20493;-86
2022/03/23 12:42:23;;;;;;;26.97;20.10;;;16.50;90.20;;;;;;4987114;28;20471;-86
2022/03/23 12:45:07;;;;;;;26.30;19.10;;;16.50;90.20;;;;;;4985519;28;20463;-85
2022/03/23 12:47:41;;;;;;;21.23;18.10;;;16.60;90.30;;;;;;4985637;28;20458;-87
2022/03/23 12:58:48;;;;;;;23.43;19.13;;;16.80;90.20;;;;;;4988050;28;20920;-85
2022/03/23 13:01:21;;;;;;;21.33;17.63;;;16.80;90.20;;;;;;4978818;28;20449;-85
2022/03/23 13:03:56;;;;;;;27.00;20.13;;;16.80;90.70;;;;;;4979781;28;20599;-87
2022/03/23 13:06:42;;;;;;;25.10;19.10;;;16.80;90.00;;;;;;4986694;28;21180;-86
2022/03/23 13:09:24;;;;;;;23.10;18.63;;;16.80;90.30;;;;;;4986008;28;20464;-86
2022/03/23 13:11:58;;;;;;;23.80;19.00;;;16.80;90.60;;;;;;4985734;28;20977;-87
2022/03/23 13:14:27;;;;;;;28.57;21.33;;;16.80;90.50;;;;;;4982027;28;20633;-88
2022/03/23 13:17:00;;;;;;;24.73;19.70;;;16.80;90.50;;;;;;4983665;28;20492;-84
2022/03/23 13:19:28;;;;;;;28.13;20.27;;;16.80;91.60;;;;;;4983360;28;20484;-85
2022/03/23 13:21:58;;;;;;;28.43;22.80;;;16.80;91.70;;;;;;4988249;28;20561;-88
2022/03/23 13:24:28;;;;;;;31.37;21.83;;;16.80;91.40;;;;;;4989266;28;20527;-85
2022/03/23 13:27:04;;;;;;;28.20;21.70;;;16.90;91.00;;;;;;4992764;28;20459;-87
2022/03/23 13:29:32;;;;;;;26.20;20.80;;;17.00;90.70;;;;;;4988088;28;21123;-86
2022/03/23 13:32:07;;;;;;;26.53;18.63;;;16.90;90.70;;;;;;4990338;28;20471;-85
2022/03/23 13:34:40;;;;;;;27.63;21.67;;;17.00;90.60;;;;;;4985352;28;20456;-84
2022/03/23 13:37:09;;;;;;;23.30;19.07;;;17.00;90.60;;;;;;4990154;28;20523;-83
2022/03/23 13:39:48;;;;;;;27.53;20.20;;;17.00;90.60;;;;;;4980266;28;20531;-82
2022/03/23 13:45:11;;;;;;;29.47;20.20;;;17.00;90.60;;;;;;4989492;28;20731;-85